createdAt,value
2022-09-27T00:02:23.679Z,8.75
2022-09-27T00:04:50.098Z,8.87
2022-09-27T00:07:16.554Z,8.79
2022-09-27T00:09:42.981Z,8.87
2022-09-27T00:12:10.067Z,8.87
2022-09-27T00:14:36.534Z,8.87
2022-09-27T00:17:03.036Z,8.89
2022-09-27T00:19:29.431Z,8.91
2022-09-27T00:21:56.401Z,8.91
2022-09-27T00:24:23.152Z,8.84
2022-09-27T00:26:50.202Z,8.88
2022-09-27T00:29:18.595Z,8.86
2022-09-27T00:31:45.800Z,8.64
2022-09-27T00:34:21.633Z,8.90
2022-09-27T00:36:48.890Z,8.70
2022-09-27T00:39:15.764Z,8.84
2022-09-27T00:41:42.644Z,8.85
2022-09-27T00:44:28.370Z,8.82
2022-09-27T00:47:08.673Z,8.82
2022-09-27T00:49:43.282Z,8.81
2022-09-27T00:52:21.378Z,8.85
2022-09-27T00:54:51.974Z,8.84
2022-09-27T00:57:19.733Z,8.79
2022-09-27T00:59:51.043Z,8.81
2022-09-27T01:02:18.050Z,8.81
2022-09-27T01:04:45.653Z,8.77
2022-09-27T01:07:12.021Z,8.74
2022-09-27T01:09:39.513Z,8.72
2022-09-27T01:12:32.494Z,8.73
2022-09-27T01:15:20.837Z,8.81
2022-09-27T01:17:50.183Z,8.84
2022-09-27T01:21:00.623Z,8.75
2022-09-27T01:24:02.862Z,8.75
2022-09-27T01:26:38.514Z,8.74
2022-09-27T01:29:34.113Z,8.74
2022-09-27T01:32:32.826Z,8.76
2022-09-27T01:35:15.850Z,8.71
2022-09-27T01:38:07.016Z,8.68
2022-09-27T01:40:45.196Z,8.71
2022-09-27T01:43:37.428Z,8.67
2022-09-27T01:46:36.468Z,8.69
2022-09-27T01:49:37.915Z,8.58
2022-09-27T01:52:08.130Z,8.64
2022-09-27T01:54:40.563Z,8.65
2022-09-27T01:57:39.273Z,8.65
2022-09-27T02:00:12.077Z,8.67
2022-09-27T02:02:48.143Z,8.66
2022-09-27T02:05:26.991Z,8.67
2022-09-27T02:08:02.208Z,8.64
2022-09-27T02:10:39.497Z,8.64
2022-09-27T02:13:26.104Z,8.58
2022-09-27T02:16:05.659Z,8.68
2022-09-27T02:18:55.380Z,8.59
2022-09-27T02:21:29.761Z,8.45
2022-09-27T02:24:02.646Z,8.41
2022-09-27T02:26:45.976Z,8.44
2022-09-27T02:29:24.541Z,8.48
2022-09-27T02:31:53.116Z,8.42
2022-09-27T02:34:24.096Z,8.49
2022-09-27T02:36:53.305Z,8.51
2022-09-27T02:39:21.133Z,8.50
2022-09-27T02:41:58.393Z,8.46
2022-09-27T02:44:27.253Z,8.44
2022-09-27T02:47:16.967Z,8.31
2022-09-27T02:50:03.358Z,8.30
2022-09-27T02:53:09.525Z,8.38
2022-09-27T02:56:00.057Z,8.25
2022-09-27T02:59:11.345Z,8.30
2022-09-27T03:02:24.389Z,8.33
2022-09-27T03:05:30.544Z,8.29
2022-09-27T03:07:57.354Z,8.26
2022-09-27T03:10:29.340Z,8.36
2022-09-27T03:12:58.538Z,8.25
2022-09-27T03:15:24.955Z,8.35
2022-09-27T03:18:11.674Z,8.30
2022-09-27T03:20:56.762Z,8.28
2022-09-27T03:23:25.694Z,8.25
2022-09-27T03:25:52.107Z,8.22
2022-09-27T03:28:19.293Z,8.24
2022-09-27T03:30:47.453Z,8.30
2022-09-27T03:33:33.471Z,8.30
2022-09-27T03:36:05.520Z,8.31
2022-09-27T03:38:31.970Z,8.34
2022-09-27T03:40:59.018Z,8.26
2022-09-27T03:43:25.719Z,8.20
2022-09-27T03:45:56.594Z,8.24
2022-09-27T03:48:27.763Z,8.22
2022-09-27T03:50:54.611Z,8.20
2022-09-27T03:53:21.203Z,8.24
2022-09-27T03:55:47.961Z,8.35
2022-09-27T03:58:14.698Z,8.28
2022-09-27T04:00:41.296Z,8.27
2022-09-27T04:03:07.828Z,8.26
2022-09-27T04:05:53.808Z,8.22
2022-09-27T04:08:27.943Z,8.18
2022-09-27T04:10:54.425Z,8.10
2022-09-27T04:13:21.076Z,8.16
2022-09-27T04:15:54.135Z,8.18
2022-09-27T04:18:43.769Z,8.22
2022-09-27T04:21:36.182Z,8.19
2022-09-27T04:24:05.186Z,8.18
2022-09-27T04:26:31.773Z,8.17
2022-09-27T04:29:02.465Z,8.13
2022-09-27T04:31:29.702Z,8.09
2022-09-27T04:34:18.146Z,7.99
2022-09-27T04:36:44.542Z,8.05
2022-09-27T04:39:16.303Z,8.02
2022-09-27T04:41:45.056Z,7.80
2022-09-27T04:44:11.842Z,7.89
2022-09-27T04:46:41.139Z,7.81
2022-09-27T04:49:07.640Z,7.84
2022-09-27T04:51:36.165Z,7.91
2022-09-27T04:54:03.846Z,7.90
2022-09-27T04:56:33.149Z,7.93
2022-09-27T04:59:01.279Z,7.92
2022-09-27T05:01:27.783Z,7.71
2022-09-27T05:04:12.909Z,7.75
2022-09-27T05:06:43.188Z,7.77
2022-09-27T05:09:18.147Z,7.53
2022-09-27T05:11:49.690Z,7.71
2022-09-27T05:14:16.202Z,7.68
2022-09-27T05:17:08.750Z,7.72
2022-09-27T05:20:14.053Z,7.62
2022-09-27T05:22:53.356Z,7.68
2022-09-27T05:25:19.779Z,7.75
2022-09-27T05:27:47.062Z,7.69
2022-09-27T05:30:13.715Z,7.75
2022-09-27T05:32:49.234Z,7.78
2022-09-27T05:35:45.750Z,7.80
2022-09-27T05:38:12.921Z,7.78
2022-09-27T05:40:44.294Z,7.71
2022-09-27T05:43:11.345Z,7.76
2022-09-27T05:45:38.079Z,7.73
2022-09-27T05:48:06.616Z,7.70
2022-09-27T05:50:39.201Z,7.71
2022-09-27T05:53:06.620Z,7.78
2022-09-27T05:55:33.061Z,7.79
2022-09-27T05:58:02.118Z,7.79
2022-09-27T06:00:51.420Z,7.84
2022-09-27T06:03:36.589Z,7.87
2022-09-27T06:06:15.474Z,7.90
2022-09-27T06:08:55.936Z,7.78
2022-09-27T06:11:26.297Z,7.75
2022-09-27T06:13:52.985Z,7.79
2022-09-27T06:16:19.762Z,7.75
2022-09-27T06:18:46.174Z,7.73
2022-09-27T06:21:13.453Z,7.64
2022-09-27T06:23:43.311Z,7.76
2022-09-27T06:26:16.404Z,7.72
2022-09-27T06:29:02.722Z,7.74
2022-09-27T06:31:31.100Z,7.76
2022-09-27T06:34:07.209Z,7.75
2022-09-27T06:36:34.015Z,7.87
2022-09-27T06:39:01.635Z,7.82
2022-09-27T06:41:44.163Z,7.86
2022-09-27T06:44:21.607Z,7.90
2022-09-27T06:47:27.085Z,8.03
2022-09-27T06:50:10.034Z,8.11
2022-09-27T06:52:37.304Z,8.20
2022-09-27T06:55:05.367Z,8.24
2022-09-27T06:57:52.204Z,8.17
2022-09-27T07:00:26.513Z,8.16
2022-09-27T07:03:23.979Z,8.22
2022-09-27T07:06:17.499Z,8.18
2022-09-27T07:08:53.090Z,8.23
2022-09-27T07:11:23.603Z,8.30
2022-09-27T07:13:51.753Z,8.36
2022-09-27T07:16:19.003Z,8.72
2022-09-27T07:18:48.362Z,9.51
2022-09-27T07:21:16.230Z,10.08
2022-09-27T07:23:42.777Z,10.59
2022-09-27T07:26:12.680Z,11.15
2022-09-27T07:28:41.548Z,11.32
2022-09-27T07:31:12.840Z,11.51
2022-09-27T07:33:43.193Z,11.90
2022-09-27T07:36:11.683Z,11.79
2022-09-27T07:38:41.302Z,11.79
2022-09-27T07:41:10.990Z,11.62
2022-09-27T07:43:37.422Z,11.51
2022-09-27T07:46:04.879Z,11.44
2022-09-27T07:48:43.166Z,11.09
2022-09-27T07:51:15.238Z,10.88
2022-09-27T07:53:44.583Z,10.78
2022-09-27T07:56:29.935Z,10.60
2022-09-27T07:58:57.177Z,10.24
2022-09-27T08:01:23.927Z,10.28
2022-09-27T08:03:50.740Z,10.17
2022-09-27T08:06:19.081Z,10.24
2022-09-27T08:08:47.348Z,10.37
2022-09-27T08:11:16.425Z,10.59
2022-09-27T08:13:45.670Z,11.06
2022-09-27T08:16:14.148Z,11.33
2022-09-27T08:19:07.213Z,11.33
2022-09-27T08:21:58.889Z,11.36
2022-09-27T08:24:30.544Z,11.21
2022-09-27T08:27:14.860Z,10.94
2022-09-27T08:29:57.568Z,10.73
2022-09-27T08:32:24.021Z,10.47
2022-09-27T08:34:51.593Z,10.42
2022-09-27T08:37:20.539Z,10.26
2022-09-27T08:39:48.306Z,10.29
2022-09-27T08:42:37.250Z,10.02
2022-09-27T08:45:14.686Z,9.94
2022-09-27T08:47:46.378Z,10.10
2022-09-27T08:50:23.674Z,10.14
2022-09-27T08:52:54.836Z,10.05
2022-09-27T08:55:25.513Z,10.05
2022-09-27T08:57:56.552Z,9.98
2022-09-27T09:00:24.749Z,9.71
2022-09-27T09:02:51.359Z,9.85
2022-09-27T09:05:30.248Z,9.79
2022-09-27T09:08:09.938Z,9.83
2022-09-27T09:11:07.971Z,9.80
2022-09-27T09:13:37.317Z,9.68
2022-09-27T09:16:22.702Z,9.78
2022-09-27T09:19:10.015Z,9.69
2022-09-27T09:22:16.846Z,9.64
2022-09-27T09:25:00.145Z,9.52
2022-09-27T09:27:43.626Z,9.53
2022-09-27T09:30:22.367Z,9.54
2022-09-27T09:33:26.922Z,9.51
2022-09-27T09:36:01.592Z,9.45
2022-09-27T09:38:41.457Z,9.49
2022-09-27T09:41:42.650Z,9.44
2022-09-27T09:44:15.455Z,9.42
2022-09-27T09:46:46.411Z,9.39
2022-09-27T09:49:35.800Z,9.58
2022-09-27T09:52:09.088Z,9.78
2022-09-27T09:54:53.489Z,9.66
2022-09-27T09:57:28.347Z,9.78
2022-09-27T10:00:01.216Z,9.97
2022-09-27T10:02:44.177Z,10.16
2022-09-27T10:05:18.311Z,10.43
2022-09-27T10:07:48.654Z,10.42
2022-09-27T10:10:17.838Z,10.46
2022-09-27T10:13:20.700Z,10.54
2022-09-27T10:16:04.147Z,10.60
2022-09-27T10:18:32.776Z,10.45
2022-09-27T10:21:04.082Z,10.53
2022-09-27T10:23:31.275Z,10.62
2022-09-27T10:26:09.027Z,10.63
2022-09-27T10:28:44.588Z,10.65
2022-09-27T10:31:19.365Z,10.64
2022-09-27T10:34:05.433Z,10.67
2022-09-27T10:36:40.297Z,10.75
2022-09-27T10:39:21.805Z,10.91
2022-09-27T10:41:48.322Z,10.97
2022-09-27T10:44:26.842Z,10.87
2022-09-27T10:47:09.813Z,9.72
2022-09-27T10:49:44.954Z,9.48
2022-09-27T10:52:36.030Z,9.48
2022-09-27T10:55:17.566Z,9.04
2022-09-27T10:57:49.937Z,9.06
2022-09-27T11:00:25.781Z,9.15
2022-09-27T11:02:58.608Z,8.58
2022-09-27T11:05:36.140Z,8.73
2022-09-27T11:08:27.310Z,9.30
2022-09-27T11:11:06.822Z,9.80
2022-09-27T11:13:36.079Z,10.04
2022-09-27T11:16:22.902Z,9.85
2022-09-27T11:19:15.531Z,9.94
2022-09-27T11:22:08.517Z,10.53
2022-09-27T11:24:54.747Z,10.86
2022-09-27T11:27:46.953Z,10.97
2022-09-27T11:30:17.974Z,11.05
2022-09-27T11:33:23.799Z,10.76
2022-09-27T11:36:13.807Z,10.69
2022-09-27T11:39:02.967Z,10.69
2022-09-27T11:41:48.418Z,10.92
2022-09-27T11:45:07.947Z,11.05
2022-09-27T11:47:48.718Z,11.14
2022-09-27T11:50:27.105Z,11.28
2022-09-27T11:52:57.870Z,11.35
2022-09-27T11:55:40.278Z,11.42
2022-09-27T11:58:21.607Z,11.55
2022-09-27T12:01:15.576Z,11.58
2022-09-27T12:04:05.589Z,11.64
2022-09-27T12:06:58.731Z,11.52
2022-09-27T12:09:34.689Z,11.51
2022-09-27T12:12:06.188Z,11.61
2022-09-27T12:14:50.645Z,11.41
2022-09-27T12:17:25.739Z,11.32
2022-09-27T12:19:58.437Z,11.60
2022-09-27T12:22:58.623Z,11.59
2022-09-27T12:25:41.210Z,11.32
2022-09-27T12:28:28.272Z,11.60
2022-09-27T12:31:27.435Z,11.68
2022-09-27T12:34:02.801Z,11.54
2022-09-27T12:36:38.291Z,11.62
2022-09-27T12:39:15.957Z,11.77
2022-09-27T12:41:53.268Z,11.70
2022-09-27T12:44:39.396Z,11.72
2022-09-27T12:47:13.047Z,11.66
2022-09-27T12:50:00.315Z,11.44
2022-09-27T12:52:35.146Z,11.47
2022-09-27T12:55:38.927Z,11.29
2022-09-27T12:58:15.694Z,11.08
2022-09-27T13:00:59.266Z,10.66
2022-09-27T13:03:54.465Z,10.10
2022-09-27T13:06:42.936Z,9.87
2022-09-27T13:09:40.081Z,9.11
2022-09-27T13:12:16.209Z,9.25
2022-09-27T13:15:07.667Z,9.33
2022-09-27T13:17:40.672Z,9.43
2022-09-27T13:20:28.094Z,9.59
2022-09-27T13:22:54.776Z,9.82
2022-09-27T13:25:55.809Z,10.12
2022-09-27T13:28:50.281Z,10.45
2022-09-27T13:31:53.807Z,10.65
2022-09-27T13:34:45.252Z,10.72
2022-09-27T13:37:45.489Z,10.47
2022-09-27T13:40:15.752Z,10.04
2022-09-27T13:43:35.546Z,10.12
2022-09-27T13:46:16.655Z,10.21
2022-09-27T13:49:27.355Z,9.95
2022-09-27T13:52:26.768Z,10.01
2022-09-27T13:55:37.246Z,9.98
2022-09-27T13:58:19.512Z,9.79
2022-09-27T14:00:53.382Z,9.94
2022-09-27T14:03:30.325Z,9.84
2022-09-27T14:06:15.535Z,9.81
2022-09-27T14:08:50.692Z,9.95
2022-09-27T14:11:28.110Z,10.01
2022-09-27T14:13:56.163Z,9.97
2022-09-27T14:16:31.601Z,10.05
2022-09-27T14:18:59.514Z,9.95
2022-09-27T14:21:39.956Z,10.10
2022-09-27T14:24:44.266Z,10.05
2022-09-27T14:27:27.427Z,9.88
2022-09-27T14:30:18.698Z,10.08
2022-09-27T14:32:58.430Z,10.03
2022-09-27T14:36:07.315Z,10.00
2022-09-27T14:38:39.154Z,10.14
2022-09-27T14:41:26.293Z,10.25
2022-09-27T14:43:53.697Z,10.02
2022-09-27T14:46:31.924Z,10.18
2022-09-27T14:48:59.651Z,10.09
2022-09-27T14:51:29.597Z,10.16
2022-09-27T14:54:00.993Z,10.25
2022-09-27T14:56:34.796Z,10.41
2022-09-27T14:59:16.958Z,10.36
2022-09-27T15:01:51.575Z,10.37
2022-09-27T15:04:20.178Z,10.18
2022-09-27T15:06:47.807Z,10.13
2022-09-27T15:09:16.758Z,9.98
2022-09-27T15:11:46.302Z,9.84
2022-09-27T15:14:17.339Z,10.00
2022-09-27T15:16:47.330Z,10.10
2022-09-27T15:19:19.341Z,10.17
2022-09-27T15:21:45.892Z,10.09
2022-09-27T15:24:44.490Z,10.25
2022-09-27T15:27:21.516Z,10.33
2022-09-27T15:29:57.007Z,10.26
2022-09-27T15:32:26.522Z,9.66
2022-09-27T15:34:54.533Z,10.25
2022-09-27T15:37:39.218Z,10.34
2022-09-27T15:40:47.127Z,10.35
2022-09-27T15:43:37.166Z,10.38
2022-09-27T15:46:24.033Z,10.33
2022-09-27T15:49:30.170Z,10.24
2022-09-27T15:51:59.388Z,10.17
2022-09-27T15:54:30.171Z,10.15
2022-09-27T15:57:02.085Z,10.12
2022-09-27T15:59:30.425Z,9.93
2022-09-27T16:02:07.595Z,9.98
2022-09-27T16:04:34.518Z,9.96
2022-09-27T16:07:04.661Z,9.99
2022-09-27T16:09:31.058Z,9.94
2022-09-27T16:11:57.538Z,9.87
2022-09-27T16:14:23.976Z,9.85
2022-09-27T16:16:58.726Z,9.86
2022-09-27T16:19:25.224Z,9.78
2022-09-27T16:21:51.600Z,9.76
2022-09-27T16:24:18.516Z,9.69
2022-09-27T16:26:44.905Z,9.42
2022-09-27T16:29:13.799Z,9.69
2022-09-27T16:31:41.241Z,9.63
2022-09-27T16:34:09.936Z,9.58
2022-09-27T16:36:36.419Z,9.53
2022-09-27T16:39:05.096Z,9.56
2022-09-27T16:41:33.203Z,9.52
2022-09-27T16:44:05.564Z,9.44
2022-09-27T16:46:34.560Z,9.42
2022-09-27T16:49:01.576Z,9.36
2022-09-27T16:51:47.040Z,9.44
2022-09-27T16:54:15.591Z,9.44
2022-09-27T16:56:42.321Z,9.45
2022-09-27T16:59:08.744Z,9.37
2022-09-27T17:01:35.440Z,9.34
2022-09-27T17:04:01.954Z,9.28
2022-09-27T17:06:32.002Z,9.28
2022-09-27T17:09:02.218Z,9.20
2022-09-27T17:11:29.426Z,8.92
2022-09-27T17:13:55.954Z,9.16
2022-09-27T17:16:24.123Z,9.04
2022-09-27T17:18:51.131Z,9.40
2022-09-27T17:21:17.541Z,9.31
2022-09-27T17:23:43.965Z,9.53
2022-09-27T17:26:21.688Z,9.43
2022-09-27T17:28:49.921Z,9.29
2022-09-27T17:31:18.686Z,8.10
2022-09-27T17:33:47.412Z,9.12
2022-09-27T17:36:18.329Z,8.91
2022-09-27T17:38:46.101Z,8.93
2022-09-27T17:41:15.495Z,8.84
2022-09-27T17:43:49.498Z,8.77
2022-09-27T17:46:18.312Z,8.70
2022-09-27T17:49:04.018Z,8.56
2022-09-27T17:51:31.459Z,8.25
2022-09-27T17:53:58.079Z,8.45
2022-09-27T17:56:24.725Z,8.46
2022-09-27T17:58:53.473Z,8.46
2022-09-27T18:01:21.892Z,8.37
2022-09-27T18:03:54.680Z,8.32
2022-09-27T18:06:21.917Z,8.43
2022-09-27T18:08:48.310Z,8.35
2022-09-27T18:11:18.031Z,8.27
2022-09-27T18:13:44.840Z,8.18
2022-09-27T18:16:17.305Z,8.19
2022-09-27T18:18:48.029Z,8.20
2022-09-27T18:21:22.336Z,8.17
2022-09-27T18:23:54.889Z,8.18
2022-09-27T18:26:24.273Z,8.04
2022-09-27T18:28:53.095Z,8.10
2022-09-27T18:31:21.517Z,8.10
2022-09-27T18:33:49.877Z,8.11
2022-09-27T18:36:21.308Z,8.12
2022-09-27T18:38:53.474Z,8.10
2022-09-27T18:41:21.148Z,8.07
2022-09-27T18:43:47.831Z,8.07
2022-09-27T18:46:37.404Z,7.98
2022-09-27T18:49:07.116Z,8.06
2022-09-27T18:51:37.129Z,8.06
2022-09-27T18:54:06.144Z,8.03
2022-09-27T18:56:38.931Z,7.95
2022-09-27T18:59:09.398Z,7.86
2022-09-27T19:01:39.618Z,7.86
2022-09-27T19:04:08.012Z,7.82
2022-09-27T19:06:35.159Z,7.90
2022-09-27T19:09:03.564Z,7.42
2022-09-27T19:11:31.496Z,7.99
2022-09-27T19:18:10.600Z,7.82
2022-09-27T19:20:37.520Z,7.78
2022-09-27T19:23:03.947Z,7.75
2022-09-27T19:25:30.351Z,7.68
2022-09-27T19:27:56.750Z,7.70
2022-09-27T19:30:23.327Z,7.69
2022-09-27T19:32:52.350Z,7.70
2022-09-27T19:35:18.734Z,7.67
2022-09-27T19:37:45.164Z,7.74
2022-09-27T19:40:11.636Z,7.85
2022-09-27T19:42:38.334Z,7.92
2022-09-27T19:45:10.642Z,7.89
2022-09-27T19:47:37.981Z,7.83
2022-09-27T19:50:04.548Z,7.93
2022-09-27T19:52:31.526Z,7.83
2022-09-27T19:54:58.362Z,7.93
2022-09-27T19:57:25.456Z,8.00
2022-09-27T19:59:51.818Z,7.95
2022-09-27T20:02:18.677Z,7.80
2022-09-27T20:04:45.367Z,8.03
2022-09-27T20:07:11.781Z,8.06
2022-09-27T20:09:38.140Z,8.03
2022-09-27T20:12:05.200Z,8.01
2022-09-27T20:14:32.192Z,7.76
2022-09-27T20:16:58.550Z,7.97
2022-09-27T20:19:24.917Z,7.80
2022-09-27T20:21:51.757Z,7.77
2022-09-27T20:24:18.190Z,7.59
2022-09-27T20:26:44.846Z,7.78
2022-09-27T20:29:11.289Z,7.79
2022-09-27T20:31:57.018Z,7.74
2022-09-27T20:34:29.842Z,7.81
2022-09-27T20:36:56.311Z,7.79
2022-09-27T20:39:23.576Z,7.80
2022-09-27T20:41:50.713Z,7.60
2022-09-27T20:44:19.764Z,7.52
2022-09-27T20:46:47.496Z,7.44
2022-09-27T20:49:16.561Z,7.26
2022-09-27T20:51:44.958Z,7.32
2022-09-27T20:54:12.607Z,7.27
2022-09-27T20:56:41.551Z,7.44
2022-09-27T20:59:22.469Z,7.47
2022-09-27T21:01:51.375Z,7.54
2022-09-27T21:04:19.003Z,7.55
2022-09-27T21:06:45.978Z,7.59
2022-09-27T21:09:18.472Z,7.52
2022-09-27T21:11:46.688Z,7.55
2022-09-27T21:14:13.179Z,7.36
2022-09-27T21:16:39.695Z,7.37
2022-09-27T21:19:06.256Z,7.19
2022-09-27T21:21:33.504Z,6.92
2022-09-27T21:24:01.923Z,7.10
2022-09-27T21:26:33.416Z,7.17
2022-09-27T21:29:01.878Z,7.12
2022-09-27T21:31:32.302Z,7.15
2022-09-27T21:34:01.297Z,7.27
2022-09-27T21:36:33.176Z,7.28
2022-09-27T21:38:59.897Z,7.23
2022-09-27T21:41:27.406Z,7.20
2022-09-27T21:43:54.088Z,7.30
2022-09-27T21:46:26.510Z,7.31
2022-09-27T21:48:55.951Z,7.25
2022-09-27T21:51:27.481Z,7.30
2022-09-27T21:54:00.638Z,7.38
2022-09-27T21:56:33.379Z,7.38
2022-09-27T21:59:00.004Z,7.47
2022-09-27T22:01:29.631Z,7.38
2022-09-27T22:03:57.381Z,7.37
2022-09-27T22:06:29.590Z,7.35
2022-09-27T22:08:56.902Z,7.43
2022-09-27T22:11:25.765Z,7.22
2022-09-27T22:13:52.295Z,7.56
2022-09-27T22:16:20.228Z,7.56
2022-09-27T22:18:48.939Z,7.44
2022-09-27T22:21:19.879Z,7.49
2022-09-27T22:23:46.581Z,7.48
2022-09-27T22:26:17.313Z,7.33
2022-09-27T22:28:45.117Z,7.40
2022-09-27T22:31:14.882Z,7.43
2022-09-27T22:33:42.823Z,7.53
2022-09-27T22:36:09.210Z,7.63
2022-09-27T22:38:35.696Z,7.71
2022-09-27T22:41:03.227Z,7.69
2022-09-27T22:43:30.474Z,7.64
2022-09-27T22:45:57.588Z,7.67
2022-09-27T22:48:24.086Z,7.62
2022-09-27T22:50:50.493Z,7.69
2022-09-27T22:53:17.064Z,7.59
2022-09-27T22:55:43.434Z,7.49
2022-09-27T22:58:09.893Z,7.67
2022-09-27T23:00:38.018Z,7.62
2022-09-27T23:03:04.572Z,7.67
2022-09-27T23:05:30.920Z,7.62
2022-09-27T23:07:57.392Z,7.77
2022-09-27T23:10:23.782Z,7.69
2022-09-27T23:12:58.153Z,7.71
2022-09-27T23:15:24.704Z,7.65
2022-09-27T23:17:51.558Z,7.66
2022-09-27T23:20:18.658Z,7.73
2022-09-27T23:22:45.446Z,7.67
2022-09-27T23:25:12.592Z,7.76
2022-09-27T23:27:42.038Z,7.79
2022-09-27T23:30:09.909Z,7.82
2022-09-27T23:32:36.539Z,7.88
2022-09-27T23:35:03.816Z,7.88
2022-09-27T23:37:30.847Z,7.64
2022-09-27T23:39:57.331Z,7.95
2022-09-27T23:42:23.877Z,8.03
2022-09-27T23:44:52.572Z,7.95
2022-09-27T23:47:19.009Z,7.92
2022-09-27T23:49:45.463Z,8.01
2022-09-27T23:52:13.530Z,7.99
2022-09-27T23:54:40.652Z,7.98
2022-09-27T23:57:07.582Z,8.03
2022-09-27T23:59:34.028Z,8.05
